CDT,Max TemperatureF,Mean TemperatureF,Min TemperatureF,Max Dew PointF,MeanDew PointF,Min DewpointF,Max Humidity, Mean Humidity, Min Humidity, Max Sea Level PressureIn, Mean Sea Level PressureIn, Min Sea Level PressureIn, Max VisibilityMiles, Mean VisibilityMiles, Min VisibilityMiles, Max Wind SpeedMPH, Mean Wind SpeedMPH, Max Gust SpeedMPH,PrecipitationIn, CloudCover, Events, WindDirDegrees
2013-3-1,32,30,27,27,24,22,93,84,74,30.15,30.09,30.02,10,7,2,16,10,22,0.00,8,Snow,343
2013-3-2,30,26,20,24,20,14,86,73,61,30.17,30.14,30.12,10,9,3,13,8,17,0.00,8,Snow,350
2013-3-3,33,23,13,18,13,10,89,66,37,30.14,30.11,30.07,10,10,10,10,4,,0.04,0,,334
2013-3-4,34,26,17,28,21,15,93,76,58,30.13,30.07,29.99,10,10,10,12,4,16,0.00,4,,100
2013-3-5,32,30,29,31,29,28,96,91,85,29.99,29.87,29.77,10,5,0,16,8,22,0.12,8,Rain-Snow,62
2013-3-6,34,32,29,28,27,25,85,81,75,30.29,30.17,29.94,10,10,2,16,10,26,0.12,8,Snow,332
2013-3-7,36,32,27,27,25,21,90,74,56,30.42,30.37,30.28,10,10,7,6,3,,0.03,8,,336
2013-3-8,38,27,16,28,22,14,97,76,53,30.50,30.43,30.31,10,8,0,9,2,,0.00,1,Fog,141
2013-3-9,42,36,30,34,29,22,83,72,66,30.31,30.10,29.86,10,10,2,16,9,23,0.01,4,Rain-Snow,150
2013-3-10,55,47,39,48,42,32,97,84,65,29.88,29.76,29.61,10,8,2,26,8,36,0.82,8,Rain-Thunderstorm,165
2013-3-11,48,40,32,47,38,30,98,93,88,29.80,29.65,29.56,10,6,2,21,11,26,0.06,8,Rain-Snow,235
2013-3-12,37,32,28,31,25,19,96,76,59,30.01,29.91,29.80,10,9,0,21,15,30,0.01,8,Snow,265
2013-3-13,34,28,23,20,14,6,78,57,33,30.32,30.19,30.01,10,10,10,18,11,34,0.00,3,Snow,299
2013-3-14,37,29,22,30,22,14,94,76,47,30.33,30.24,30.08,10,10,7,12,6,,0.00,4,,233
2013-3-15,44,36,27,39,32,26,96,88,64,30.09,29.91,29.74,10,5,2,12,6,18,0.01,4,Rain,220
2013-3-16,35,32,30,34,29,22,100,86,68,30.11,29.90,29.69,10,7,1,18,9,26,0.01,8,,8
2013-3-17,37,32,29,25,21,18,74,64,54,30.19,30.12,30.01,10,10,10,18,8,23,0.00,5,,66
2013-3-18,35,29,23,32,26,14,96,84,63,29.99,29.75,29.62,10,7,1,32,11,43,0.05,7,Rain-Snow,157
2013-3-19,34,26,19,16,13,10,71,58,41,30.07,29.94,29.81,10,10,3,30,21,39,0.00,3,Snow,271
2013-3-20,26,21,16,15,7,3,81,54,41,30.09,30.05,30.02,10,10,3,21,12,33,0.00,4,Snow,293
2013-3-21,35,24,13,20,10,4,87,57,36,30.04,30.02,29.99,10,10,10,14,7,18,0.00,0,,313
2013-3-22,41,29,17,23,16,11,83,60,30,30.07,30.04,29.99,10,10,10,10,4,16,0.00,0,,282
2013-3-23,39,32,24,25,23,20,93,71,48,30.13,30.07,30.01,10,10,10,14,3,18,0.00,2,,44
2013-3-24,35,33,31,30,25,22,92,71,62,30.02,29.79,29.62,10,9,1,24,11,34,0.00,7,Snow,46
2013-3-25,36,34,32,30,26,22,87,74,64,30.05,29.83,29.66,10,10,2,24,16,32,0.00,8,Snow,4
2013-3-26,41,36,30,26,23,18,76,61,40,30.25,30.16,30.05,10,10,10,9,5,18,0.00,7,,319
2013-3-27,42,32,23,28,22,14,94,60,33,30.31,30.29,30.25,10,10,10,10,4,,0.00,7,,310
2013-3-28,50,36,22,25,20,16,93,54,27,30.35,30.31,30.27,10,10,10,10,2,16,0.00,1,,306
2013-3-29,54,39,25,28,21,15,90,51,26,30.32,30.28,30.22,10,10,10,12,2,,0.00,2,,42
2013-3-30,58,42,26,39,31,23,94,64,36,30.25,30.08,29.87,10,9,5,21,5,24,0.00,2,,198
2013-3-31,60,48,38,44,35,23,95,64,30,29.88,29.79,29.70,10,9,2,26,11,37,0.00,4,Rain,272